Time;durP1;ratioP1;P1;durP2;ratioP2;P2;SDS_P1;SDS_P2;PMS_P1;PMS_P2;Temp;Humidity;BMP_temperature;BMP_pressure;BME280_temperature;BME280_humidity;BME280_pressure;Samples;Min_cycle;Max_cycle;Signal;HPM_P1;HPM_P2
2021/01/25 00:01:30;;;;;;;6.80;5.03;;;2.00;99.90;;;;;;4999762;28;20026;-78
2021/01/25 00:03:56;;;;;;;5.53;4.63;;;2.00;99.90;;;;;;4993553;28;20027;-80
2021/01/25 00:06:22;;;;;;;6.40;4.43;;;1.80;99.90;;;;;;4999005;28;20018;-82
2021/01/25 00:09:22;;;;;;;8.90;5.05;;;1.80;99.90;;;;;;5017263;28;20026;-81
2021/01/25 00:11:51;;;;;;;5.00;3.70;;;1.90;82.00;;;;;;5016269;28;20026;-82
2021/01/25 00:14:16;;;;;;;6.25;4.15;;;1.90;84.50;;;;;;5016754;28;20036;-81
2021/01/25 00:16:42;;;;;;;4.93;4.10;;;2.00;58.70;;;;;;4998701;28;20026;-79
2021/01/25 00:19:08;;;;;;;7.63;5.07;;;2.00;29.70;;;;;;5001659;28;20022;-81
2021/01/25 00:21:33;;;;;;;4.95;3.95;;;2.10;31.00;;;;;;4995901;28;20038;-80
2021/01/25 00:23:59;;;;;;;4.32;3.60;;;2.00;56.70;;;;;;5011074;28;20092;-82
2021/01/25 00:26:25;;;;;;;4.53;4.03;;;2.00;96.70;;;;;;5003958;28;20030;-71
2021/01/25 00:28:50;;;;;;;5.05;3.78;;;2.00;37.20;;;;;;4984125;28;20038;-71
2021/01/25 00:31:16;;;;;;;5.32;3.97;;;1.80;99.90;;;;;;4987356;28;20035;-71
2021/01/25 00:33:41;;;;;;;6.70;4.88;;;1.60;99.90;;;;;;4988394;28;20083;-71
2021/01/25 00:36:07;;;;;;;5.75;3.85;;;1.50;99.90;;;;;;4984819;28;20038;-72
2021/01/25 00:41:00;;;;;;;6.10;4.47;;;1.50;99.90;;;;;;5012111;28;20050;-74
2021/01/25 00:43:26;;;;;;;8.05;4.53;;;1.50;99.90;;;;;;5006262;28;20017;-74
2021/01/25 00:45:52;;;;;;;6.78;4.05;;;1.40;99.90;;;;;;5015714;28;20033;-74
2021/01/25 00:48:17;;;;;;;5.30;4.22;;;1.30;99.90;;;;;;5012630;28;20504;-73
2021/01/25 00:50:43;;;;;;;5.93;4.00;;;1.20;99.90;;;;;;5001805;28;20481;-74
2021/01/25 00:53:08;;;;;;;6.90;3.85;;;1.20;99.90;;;;;;5013400;28;20029;-73
2021/01/25 00:55:34;;;;;;;4.93;3.80;;;1.20;99.90;;;;;;5006144;28;20038;-75
2021/01/25 00:58:01;;;;;;;5.15;4.07;;;1.40;99.90;;;;;;5010780;28;20065;-72
2021/01/25 01:00:27;;;;;;;6.22;3.50;;;1.40;99.90;;;;;;5003983;28;20029;-73
2021/01/25 01:02:52;;;;;;;4.30;3.50;;;1.40;99.90;;;;;;5012146;28;20034;-73
2021/01/25 01:05:18;;;;;;;4.85;3.50;;;1.40;99.90;;;;;;5007145;28;20345;-74
2021/01/25 01:07:43;;;;;;;5.55;3.47;;;1.40;99.90;;;;;;5008800;28;20033;-73
2021/01/25 01:10:09;;;;;;;4.47;3.20;;;1.50;99.90;;;;;;5015396;28;20033;-74
2021/01/25 01:12:35;;;;;;;5.20;3.28;;;1.50;99.90;;;;;;5015435;28;20238;-73
2021/01/25 01:15:00;;;;;;;3.28;2.97;;;1.50;99.90;;;;;;5009518;28;20042;-73
2021/01/25 01:17:26;;;;;;;5.13;3.05;;;1.50;60.80;;;;;;5012963;28;20030;-75
2021/01/25 01:19:52;;;;;;;6.97;3.92;;;1.70;1.00;;;;;;5036470;28;20106;-74
2021/01/25 01:22:17;;;;;;;2.55;2.35;;;1.50;66.90;;;;;;5031855;28;20042;-74
2021/01/25 01:24:43;;;;;;;3.72;3.15;;;1.50;99.90;;;;;;5013984;28;20036;-72
2021/01/25 01:27:08;;;;;;;5.22;3.28;;;1.50;99.90;;;;;;5006852;28;20049;-73
2021/01/25 01:29:34;;;;;;;4.15;2.78;;;1.60;89.60;;;;;;5014037;28;20021;-73
2021/01/25 01:31:59;;;;;;;6.40;3.17;;;1.60;99.90;;;;;;5017538;28;20069;-73
2021/01/25 01:34:25;;;;;;;6.25;3.22;;;1.50;99.90;;;;;;5021247;28;20022;-73
2021/01/25 01:36:50;;;;;;;4.32;3.20;;;1.50;73.80;;;;;;5014857;28;20122;-73
2021/01/25 01:39:16;;;;;;;3.03;2.53;;;1.60;43.10;;;;;;5010038;28;20120;-74
2021/01/25 01:41:42;;;;;;;3.63;2.58;;;1.80;1.00;;;;;;5018130;28;20088;-74
2021/01/25 01:44:11;;;;;;;5.20;3.42;;;1.50;42.70;;;;;;5018496;28;20033;-74
2021/01/25 01:46:41;;;;;;;3.97;2.65;;;1.70;40.40;;;;;;5003442;28;20072;-74
2021/01/25 01:49:07;;;;;;;4.30;3.50;;;1.60;43.60;;;;;;5006808;28;20041;-73
2021/01/25 01:51:33;;;;;;;7.53;3.58;;;1.60;91.90;;;;;;5008356;28;20037;-73
2021/01/25 01:54:01;;;;;;;4.95;3.45;;;1.50;99.90;;;;;;4996750;28;20049;-74
2021/01/25 01:56:27;;;;;;;3.95;3.40;;;1.30;99.90;;;;;;5007911;28;20021;-72
2021/01/25 01:58:53;;;;;;;8.93;3.45;;;1.20;99.90;;;;;;5001033;28;20056;-74
2021/01/25 02:01:18;;;;;;;5.93;3.90;;;1.30;99.90;;;;;;5012961;28;20048;-74
2021/01/25 02:03:44;;;;;;;5.80;3.60;;;1.30;99.90;;;;;;5012516;28;20026;-74
2021/01/25 02:06:10;;;;;;;7.28;3.63;;;1.50;99.90;;;;;;5004640;28;20051;-73
2021/01/25 02:08:38;;;;;;;7.18;4.35;;;1.50;99.90;;;;;;4999843;28;20040;-73
2021/01/25 02:11:05;;;;;;;7.90;4.30;;;1.50;99.90;;;;;;5007190;28;20746;-73
2021/01/25 02:13:31;;;;;;;8.23;3.97;;;1.50;99.90;;;;;;5007362;28;20037;-73
2021/01/25 02:16:00;;;;;;;6.75;4.93;;;1.40;99.90;;;;;;5012519;28;20033;-73
2021/01/25 02:18:31;;;;;;;6.03;5.35;;;1.40;99.90;;;;;;5005272;28;20722;-73
2021/01/25 02:20:58;;;;;;;6.90;3.95;;;1.40;99.90;;;;;;5001463;28;20035;-72
2021/01/25 02:24:02;;;;;;;5.93;4.13;;;1.40;99.90;;;;;;5000024;28;20030;-74
2021/01/25 02:26:42;;;;;;;6.78;4.90;;;1.50;99.90;;;;;;4999035;28;20034;-75
2021/01/25 02:29:07;;;;;;;4.78;4.25;;;1.50;99.90;;;;;;5004932;28;20027;-73
2021/01/25 02:31:33;;;;;;;8.88;4.22;;;1.50;99.90;;;;;;5013047;28;20486;-72
2021/01/25 02:34:00;;;;;;;5.63;4.30;;;1.50;99.90;;;;;;5006920;28;20032;-72
2021/01/25 02:36:29;;;;;;;5.63;4.97;;;1.50;99.90;;;;;;5008484;28;20030;-72
2021/01/25 02:38:57;;;;;;;5.72;4.10;;;1.30;99.90;;;;;;5006020;28;20030;-71
2021/01/25 02:41:25;;;;;;;6.10;4.43;;;1.30;99.90;;;;;;5013760;28;20120;-72
2021/01/25 02:43:52;;;;;;;4.47;4.07;;;1.30;1.00;;;;;;5006341;28;20084;-72
2021/01/25 02:46:19;;;;;;;5.50;4.50;;;1.30;99.90;;;;;;4996878;28;20026;-73
2021/01/25 02:48:45;;;;;;;5.75;4.20;;;1.30;1.00;;;;;;5012335;28;20485;-72
2021/01/25 02:51:12;;;;;;;6.10;4.18;;;1.30;1.00;;;;;;5013085;28;20042;-72
2021/01/25 02:53:37;;;;;;;6.00;4.72;;;1.40;99.90;;;;;;5005619;28;20045;-72
2021/01/25 02:56:05;;;;;;;5.32;3.97;;;1.40;99.90;;;;;;5002540;28;20534;-73
2021/01/25 02:58:31;;;;;;;5.75;4.40;;;1.40;1.00;;;;;;4998455;28;20149;-72
2021/01/25 03:00:57;;;;;;;7.22;4.20;;;1.40;1.00;;;;;;4999365;28;20030;-72
2021/01/25 03:03:24;;;;;;;4.50;3.97;;;1.60;1.00;;;;;;4998923;28;20393;-73
2021/01/25 03:05:49;;;;;;;7.55;4.40;;;1.70;99.90;;;;;;5004505;28;20026;-73
2021/01/25 03:08:15;;;;;;;9.80;4.65;;;1.50;1.00;;;;;;5002591;28;20508;-73
2021/01/25 03:10:41;;;;;;;7.97;4.40;;;1.40;1.00;;;;;;5010806;28;20039;-73
2021/01/25 03:13:07;;;;;;;5.93;3.85;;;1.40;1.00;;;;;;4998329;28;20599;-73
2021/01/25 03:15:34;;;;;;;7.03;4.32;;;1.40;1.00;;;;;;5003449;28;20037;-73
2021/01/25 03:18:00;;;;;;;5.78;4.00;;;1.40;1.00;;;;;;5002172;28;20116;-74
2021/01/25 03:20:26;;;;;;;4.25;3.85;;;1.40;1.00;;;;;;5000347;28;20061;-73
2021/01/25 03:22:51;;;;;;;9.13;5.50;;;1.40;1.00;;;;;;4996517;28;20477;-73
2021/01/25 03:25:17;;;;;;;6.63;4.80;;;1.40;1.00;;;;;;4998413;28;20022;-73
2021/01/25 03:27:43;;;;;;;5.43;3.97;;;1.30;1.00;;;;;;4998074;28;20034;-73
2021/01/25 03:30:13;;;;;;;5.72;4.90;;;1.30;1.00;;;;;;5005766;28;20030;-72
2021/01/25 03:32:39;;;;;;;5.60;4.68;;;1.20;45.50;;;;;;5007614;28;20122;-73
2021/01/25 03:35:06;;;;;;;6.82;4.53;;;1.10;95.80;;;;;;4999258;28;20469;-73
2021/01/25 03:37:32;;;;;;;7.18;4.70;;;1.00;99.90;;;;;;4997500;28;20089;-73
2021/01/25 03:39:58;;;;;;;7.30;4.68;;;0.90;99.90;;;;;;5005124;28;20109;-73
2021/01/25 03:42:24;;;;;;;5.65;4.47;;;0.80;99.90;;;;;;4998521;28;20022;-73
2021/01/25 03:44:50;;;;;;;5.90;3.97;;;0.80;99.90;;;;;;5005347;28;20037;-74
2021/01/25 03:47:16;;;;;;;8.63;4.97;;;0.70;99.90;;;;;;5000722;28;20037;-73
2021/01/25 03:49:41;;;;;;;9.38;5.50;;;0.70;99.90;;;;;;4997538;28;20031;-73
2021/01/25 03:52:07;;;;;;;5.97;4.88;;;0.90;99.90;;;;;;5005690;28;20027;-73
2021/01/25 03:54:33;;;;;;;5.53;4.20;;;1.10;99.90;;;;;;5006656;28;20029;-73
2021/01/25 03:56:58;;;;;;;8.35;5.95;;;1.20;99.90;;;;;;5012672;28;20051;-73
2021/01/25 03:59:24;;;;;;;5.00;4.50;;;1.20;99.90;;;;;;5003913;28;20389;-74
2021/01/25 04:01:50;;;;;;;5.47;4.80;;;1.30;99.90;;;;;;5009101;28;20030;-73
2021/01/25 04:04:15;;;;;;;5.43;4.68;;;1.20;99.90;;;;;;5007214;28;20105;-73
2021/01/25 04:06:41;;;;;;;5.38;4.47;;;1.20;99.90;;;;;;5001738;28;20076;-72
2021/01/25 04:09:06;;;;;;;5.15;4.47;;;1.30;99.90;;;;;;5000381;28;20030;-73
2021/01/25 04:11:33;;;;;;;7.30;4.57;;;1.20;99.90;;;;;;4998634;28;20446;-73
2021/01/25 04:13:58;;;;;;;5.68;4.80;;;1.30;99.90;;;;;;5003341;28;20030;-73
2021/01/25 04:16:24;;;;;;;6.68;5.50;;;1.20;99.90;;;;;;4998167;28;20113;-73
2021/01/25 04:18:49;;;;;;;7.63;5.70;;;1.20;99.90;;;;;;4997220;28;20433;-73
2021/01/25 04:21:15;;;;;;;9.23;5.50;;;1.30;99.90;;;;;;5010544;28;20554;-73
2021/01/25 04:23:41;;;;;;;6.35;5.38;;;1.30;99.90;;;;;;5015650;28;20022;-73
2021/01/25 04:26:06;;;;;;;8.98;5.07;;;1.10;99.90;;;;;;5025792;28;20056;-72
2021/01/25 04:28:32;;;;;;;8.60;5.68;;;1.20;99.90;;;;;;5014627;28;20027;-72
2021/01/25 04:30:57;;;;;;;9.85;5.75;;;1.20;99.90;;;;;;5012315;28;20053;-73
2021/01/25 04:33:23;;;;;;;7.63;5.68;;;1.10;99.90;;;;;;5008392;28;20440;-73
2021/01/25 04:35:49;;;;;;;7.88;6.13;;;1.10;99.90;;;;;;5004867;28;20037;-73
2021/01/25 04:38:14;;;;;;;13.77;6.40;;;1.10;99.90;;;;;;5002449;28;20021;-73
2021/01/25 04:40:40;;;;;;;13.88;7.00;;;1.00;99.90;;;;;;5003168;28;20031;-73
2021/01/25 04:43:07;;;;;;;10.18;6.38;;;1.20;99.90;;;;;;5013896;28;20050;-73
2021/01/25 04:45:33;;;;;;;8.85;5.43;;;1.20;99.90;;;;;;5010331;28;20061;-73
2021/01/25 04:48:00;;;;;;;9.40;6.30;;;1.20;99.90;;;;;;5006062;28;20057;-73
2021/01/25 04:50:25;;;;;;;8.23;6.88;;;1.30;99.90;;;;;;5006676;28;20030;-73
2021/01/25 04:52:52;;;;;;;11.27;6.68;;;1.30;99.90;;;;;;5008579;28;20037;-73
2021/01/25 04:55:18;;;;;;;7.03;6.25;;;1.20;99.90;;;;;;5012757;28;20026;-73
2021/01/25 04:57:44;;;;;;;9.57;6.80;;;1.20;99.90;;;;;;5002473;28;20065;-72
2021/01/25 05:00:16;;;;;;;10.30;6.55;;;1.20;99.90;;;;;;5002185;28;20030;-73
2021/01/25 05:02:41;;;;;;;9.07;6.32;;;1.30;99.90;;;;;;5002540;28;20037;-73
2021/01/25 05:05:08;;;;;;;11.10;7.05;;;1.20;99.90;;;;;;5002051;28;20029;-73
2021/01/25 05:07:34;;;;;;;11.40;6.50;;;1.30;99.90;;;;;;4998816;28;20374;-74
2021/01/25 05:10:03;;;;;;;12.95;7.13;;;1.20;99.90;;;;;;4997219;28;20036;-73
2021/01/25 05:12:42;;;;;;;13.40;7.13;;;1.30;99.90;;;;;;4998299;28;20486;-73
2021/01/25 05:15:10;;;;;;;12.82;6.55;;;1.30;99.90;;;;;;5002997;28;20029;-71
2021/01/25 05:17:36;;;;;;;10.43;6.43;;;1.30;99.90;;;;;;5001320;28;20038;-73
2021/01/25 05:20:06;;;;;;;9.20;7.15;;;1.30;99.90;;;;;;5009695;28;20071;-73
2021/01/25 05:22:37;;;;;;;9.75;7.55;;;1.20;99.90;;;;;;5010768;28;20031;-72
2021/01/25 05:25:04;;;;;;;7.68;6.88;;;1.30;99.90;;;;;;5000764;28;20026;-73
2021/01/25 05:27:32;;;;;;;9.85;7.25;;;1.30;99.90;;;;;;5008557;28;20030;-74
2021/01/25 05:30:11;;;;;;;11.30;6.50;;;1.30;99.90;;;;;;5003752;28;20022;-72
2021/01/25 05:32:47;;;;;;;9.73;6.75;;;1.30;99.90;;;;;;5010367;28;20563;-72
2021/01/25 05:35:15;;;;;;;9.82;7.75;;;1.30;99.90;;;;;;5006096;28;20034;-74
2021/01/25 05:37:42;;;;;;;8.40;7.25;;;1.20;99.90;;;;;;5003941;28;20030;-73
2021/01/25 05:40:13;;;;;;;7.55;6.50;;;1.20;99.90;;;;;;5007806;28;20022;-73
2021/01/25 05:42:41;;;;;;;9.10;7.55;;;1.10;99.90;;;;;;4998103;28;20447;-73
2021/01/25 05:45:09;;;;;;;8.52;7.65;;;1.00;99.90;;;;;;5014367;28;20058;-73
2021/01/25 05:47:45;;;;;;;13.50;8.65;;;1.20;99.90;;;;;;4997808;28;20389;-73
2021/01/25 05:50:32;;;;;;;8.30;6.82;;;1.30;99.90;;;;;;5009128;28;20030;-73
2021/01/25 05:53:00;;;;;;;10.98;7.35;;;1.30;99.90;;;;;;4995192;28;20035;-73
2021/01/25 05:55:26;;;;;;;10.73;8.20;;;1.30;99.90;;;;;;4999689;28;20041;-73
2021/01/25 05:57:52;;;;;;;9.13;8.10;;;1.00;99.90;;;;;;5000202;28;20074;-73
2021/01/25 06:00:18;;;;;;;7.75;6.95;;;1.10;99.90;;;;;;5000711;28;20054;-74
2021/01/25 06:02:47;;;;;;;10.30;7.90;;;1.20;99.90;;;;;;5002866;28;20026;-73
2021/01/25 06:05:31;;;;;;;10.25;8.57;;;1.20;99.90;;;;;;5006190;28;20101;-72
2021/01/25 06:08:23;;;;;;;9.52;7.55;;;1.10;99.90;;;;;;5009590;28;20034;-73
2021/01/25 06:11:27;;;;;;;8.23;7.40;;;1.10;99.90;;;;;;5007197;28;20026;-73
2021/01/25 06:13:56;;;;;;;9.95;8.20;;;1.00;99.90;;;;;;5000947;28;20490;-72
2021/01/25 06:16:24;;;;;;;11.50;8.30;;;1.10;99.90;;;;;;5004768;28;20045;-73
2021/01/25 06:18:52;;;;;;;9.05;8.15;;;1.00;99.90;;;;;;4999569;28;20033;-73
2021/01/25 06:21:26;;;;;;;9.48;7.95;;;1.10;99.90;;;;;;5012333;28;20040;-74
2021/01/25 06:23:54;;;;;;;8.73;7.78;;;1.20;99.90;;;;;;5014089;28;20059;-73
2021/01/25 06:26:23;;;;;;;8.90;7.43;;;1.20;99.90;;;;;;5005763;28;20014;-74
2021/01/25 06:28:50;;;;;;;9.90;8.40;;;1.20;99.90;;;;;;5010074;28;20109;-74
2021/01/25 06:31:19;;;;;;;12.48;10.18;;;1.20;99.90;;;;;;5009559;28;20104;-74
2021/01/25 06:33:48;;;;;;;9.60;8.45;;;1.10;99.90;;;;;;5000185;28;20053;-74
2021/01/25 06:36:16;;;;;;;12.73;9.95;;;0.90;99.90;;;;;;5008232;28;20120;-74
2021/01/25 06:38:43;;;;;;;10.23;8.90;;;0.90;99.90;;;;;;5000430;28;20026;-74
2021/01/25 06:41:13;;;;;;;10.82;9.55;;;1.10;99.90;;;;;;5033228;23;20069;-70
2021/01/25 06:43:44;;;;;;;12.18;9.45;;;1.00;99.90;;;;;;5010608;28;20022;-71
2021/01/25 06:46:14;;;;;;;13.68;10.35;;;1.00;99.90;;;;;;5007353;28;20030;-71
2021/01/25 06:48:40;;;;;;;11.13;10.02;;;1.00;99.90;;;;;;5014738;28;20045;-71
2021/01/25 06:51:08;;;;;;;9.57;8.43;;;1.00;99.90;;;;;;5012132;28;20034;-71
2021/01/25 06:53:35;;;;;;;9.80;8.75;;;1.20;99.90;;;;;;4994408;28;20050;-71
2021/01/25 06:56:01;;;;;;;9.27;8.38;;;1.10;99.90;;;;;;4995336;28;20038;-71
2021/01/25 06:58:29;;;;;;;12.80;9.48;;;0.90;99.90;;;;;;4992876;28;20033;-71
2021/01/25 07:00:55;;;;;;;8.80;8.00;;;0.90;99.90;;;;;;4994838;28;20034;-70
2021/01/25 07:03:21;;;;;;;10.90;7.97;;;0.90;99.90;;;;;;4977224;28;20065;-72
2021/01/25 07:05:49;;;;;;;11.07;8.13;;;1.00;99.90;;;;;;4974030;28;20053;-72
2021/01/25 07:08:26;;;;;;;10.70;8.10;;;1.00;99.90;;;;;;4975177;28;20037;-71
2021/01/25 07:10:59;;;;;;;8.73;7.47;;;0.90;99.90;;;;;;4976037;28;20038;-72
2021/01/25 07:13:28;;;;;;;11.10;8.48;;;0.90;99.90;;;;;;4978180;28;20081;-71
2021/01/25 07:15:55;;;;;;;13.50;9.38;;;0.90;99.90;;;;;;4976044;28;20035;-71
2021/01/25 07:18:22;;;;;;;13.50;9.23;;;0.90;99.90;;;;;;4974656;28;20031;-71
2021/01/25 07:20:52;;;;;;;10.15;7.50;;;0.80;99.90;;;;;;4973487;28;20045;-72
2021/01/25 07:23:20;;;;;;;11.93;9.02;;;0.90;99.90;;;;;;4976323;28;20083;-71
2021/01/25 07:25:59;;;;;;;10.27;9.23;;;0.90;99.90;;;;;;4955014;28;20059;-71
2021/01/25 07:28:28;;;;;;;11.15;8.35;;;0.90;99.90;;;;;;4975209;28;20454;-72
2021/01/25 07:30:54;;;;;;;13.30;9.60;;;0.90;99.90;;;;;;4976251;28;20041;-71
2021/01/25 07:33:20;;;;;;;13.57;10.13;;;1.00;99.90;;;;;;4976190;28;20031;-71
2021/01/25 07:35:47;;;;;;;17.58;10.60;;;1.00;99.90;;;;;;4978086;28;20534;-71
2021/01/25 07:38:13;;;;;;;17.42;9.02;;;1.10;99.90;;;;;;4976021;28;20031;-72
2021/01/25 07:40:39;;;;;;;11.35;9.18;;;1.20;99.90;;;;;;4975574;28;20035;-71
2021/01/25 07:43:05;;;;;;;14.20;9.20;;;1.30;99.90;;;;;;4976124;28;20084;-72
2021/01/25 07:45:32;;;;;;;11.48;8.85;;;1.50;99.90;;;;;;4975710;28;20031;-72
2021/01/25 07:47:58;;;;;;;13.02;9.20;;;1.50;99.90;;;;;;4974613;28;20038;-72
2021/01/25 07:50:23;;;;;;;11.15;10.00;;;1.60;99.90;;;;;;4976817;28;20034;-72
2021/01/25 07:52:59;;;;;;;14.02;9.88;;;1.60;99.90;;;;;;4976521;28;20027;-71
2021/01/25 07:55:24;;;;;;;11.95;10.07;;;1.50;99.90;;;;;;4975474;28;20023;-72
2021/01/25 07:57:50;;;;;;;13.75;10.68;;;1.40;99.90;;;;;;4975318;28;20131;-72
2021/01/25 08:00:23;;;;;;;14.32;8.80;;;1.50;99.90;;;;;;4973720;28;20038;-71
2021/01/25 08:02:56;;;;;;;11.20;9.30;;;1.40;99.90;;;;;;4975180;28;20027;-72
2021/01/25 08:05:23;;;;;;;14.30;8.93;;;1.30;99.90;;;;;;4975039;28;20574;-72
2021/01/25 08:07:50;;;;;;;9.93;7.75;;;1.30;99.90;;;;;;4975323;28;20070;-72
2021/01/25 08:10:16;;;;;;;12.02;9.20;;;1.30;99.90;;;;;;4975372;28;20027;-72
2021/01/25 08:12:46;;;;;;;9.82;8.75;;;1.40;99.90;;;;;;4997878;28;20058;-71
2021/01/25 08:15:26;;;;;;;12.02;8.93;;;1.40;99.90;;;;;;4975307;28;20061;-72
2021/01/25 08:18:03;;;;;;;14.85;8.82;;;1.40;99.90;;;;;;4974003;28;20164;-70
2021/01/25 08:20:35;;;;;;;8.20;7.25;;;1.40;99.90;;;;;;4973834;28;20097;-72
2021/01/25 08:23:11;;;;;;;10.23;8.73;;;1.40;99.90;;;;;;4975055;28;20026;-72
2021/01/25 08:25:37;;;;;;;13.20;9.20;;;1.40;99.90;;;;;;4975061;28;20027;-72
2021/01/25 08:28:09;;;;;;;14.57;9.27;;;1.40;99.90;;;;;;4974245;28;20019;-72
2021/01/25 08:30:48;;;;;;;12.15;9.10;;;1.40;99.90;;;;;;4974338;28;20089;-71
2021/01/25 08:33:31;;;;;;;11.15;9.13;;;1.40;99.90;;;;;;4974631;28;20026;-71
2021/01/25 08:35:59;;;;;;;12.80;9.68;;;1.50;99.90;;;;;;4973511;28;20033;-71
2021/01/25 08:38:40;;;;;;;12.40;9.88;;;1.50;99.90;;;;;;4974893;28;20093;-72
2021/01/25 08:41:32;;;;;;;10.98;9.55;;;1.60;99.90;;;;;;4974240;28;20088;-72
2021/01/25 08:44:00;;;;;;;16.17;9.70;;;2.00;99.90;;;;;;4973164;28;20026;-71
2021/01/25 08:46:32;;;;;;;10.30;8.63;;;2.30;99.90;;;;;;4975705;28;20486;-72
2021/01/25 08:49:12;;;;;;;10.98;9.45;;;2.40;99.90;;;;;;4974835;28;20026;-72
2021/01/25 08:51:38;;;;;;;13.25;10.20;;;2.30;99.90;;;;;;4975423;28;20034;-70
2021/01/25 08:54:18;;;;;;;16.08;8.13;;;2.30;99.90;;;;;;4975942;28;20026;-72
2021/01/25 08:56:44;;;;;;;10.18;9.02;;;2.30;99.90;;;;;;4974103;28;20022;-71
2021/01/25 08:59:12;;;;;;;10.55;7.68;;;2.30;99.90;;;;;;4974208;28;20031;-72
2021/01/25 09:01:40;;;;;;;14.02;8.40;;;2.30;99.90;;;;;;4973294;28;20034;-72
2021/01/25 09:04:06;;;;;;;11.07;8.50;;;2.20;99.90;;;;;;4975471;28;20023;-72
2021/01/25 09:06:33;;;;;;;11.40;10.15;;;2.20;99.90;;;;;;4975498;28;20023;-71
2021/01/25 09:09:01;;;;;;;9.38;8.48;;;2.30;99.90;;;;;;4984020;28;20038;-71
2021/01/25 09:11:27;;;;;;;8.68;7.78;;;2.20;99.90;;;;;;4985377;28;20019;-72
2021/01/25 09:13:53;;;;;;;10.55;8.15;;;2.20;99.90;;;;;;4984969;28;20050;-73
2021/01/25 09:16:18;;;;;;;9.60;8.35;;;2.00;99.90;;;;;;4976485;28;20483;-71
2021/01/25 09:18:44;;;;;;;15.80;8.98;;;1.90;99.90;;;;;;4972266;28;20042;-72
2021/01/25 09:21:09;;;;;;;19.48;11.50;;;1.90;99.90;;;;;;4973364;28;20050;-72
2021/01/25 09:23:35;;;;;;;13.63;9.35;;;1.90;99.90;;;;;;4975035;28;20026;-71
2021/01/25 09:26:00;;;;;;;16.17;10.75;;;2.00;99.90;;;;;;4972771;28;20125;-71
2021/01/25 09:28:26;;;;;;;13.88;9.80;;;1.90;99.90;;;;;;4973959;28;20086;-71
2021/01/25 09:30:51;;;;;;;11.15;8.40;;;1.90;99.90;;;;;;4973797;28;20050;-72
2021/01/25 09:33:17;;;;;;;13.82;8.02;;;1.90;99.90;;;;;;4972989;28;20121;-72
2021/01/25 09:35:42;;;;;;;15.85;9.48;;;2.00;99.90;;;;;;4973567;28;20031;-71
2021/01/25 09:38:08;;;;;;;13.00;10.52;;;2.00;99.90;;;;;;4975202;28;20043;-72
2021/01/25 09:40:34;;;;;;;11.73;8.77;;;2.00;99.90;;;;;;4973485;28;20027;-72
2021/01/25 09:43:01;;;;;;;20.40;10.32;;;2.20;99.90;;;;;;4975063;28;20027;-72
2021/01/25 09:45:27;;;;;;;15.23;10.15;;;2.30;99.90;;;;;;4976430;28;20122;-72
2021/01/25 09:47:52;;;;;;;15.98;9.63;;;2.50;99.90;;;;;;4977669;28;20063;-71
2021/01/25 09:50:19;;;;;;;10.73;8.95;;;2.70;99.90;;;;;;4977549;28;20054;-72
2021/01/25 09:52:46;;;;;;;15.73;9.48;;;2.50;99.90;;;;;;4977455;28;20450;-72
2021/01/25 09:55:14;;;;;;;11.35;8.38;;;2.60;99.90;;;;;;4978304;28;20042;-73
2021/01/25 09:57:39;;;;;;;14.45;8.77;;;2.80;99.90;;;;;;4977752;28;20107;-70
2021/01/25 10:00:08;;;;;;;11.82;8.68;;;2.90;99.90;;;;;;4980236;28;20057;-74
2021/01/25 10:02:34;;;;;;;13.40;8.50;;;3.20;99.90;;;;;;4977924;28;20030;-72
2021/01/25 10:04:59;;;;;;;16.13;10.15;;;3.40;99.90;;;;;;4979443;28;20030;-72
2021/01/25 10:07:25;;;;;;;12.75;9.10;;;3.30;99.90;;;;;;4970483;28;20081;-72
2021/01/25 10:09:54;;;;;;;10.48;9.32;;;3.30;99.90;;;;;;4978057;28;20107;-71
2021/01/25 10:12:21;;;;;;;16.13;10.23;;;3.10;99.90;;;;;;4977713;28;20115;-71
2021/01/25 10:14:47;;;;;;;12.38;8.55;;;3.10;99.90;;;;;;4977715;28;20031;-71
2021/01/25 10:17:13;;;;;;;13.73;10.55;;;2.90;99.90;;;;;;4978762;28;20042;-71
2021/01/25 10:19:38;;;;;;;9.75;8.77;;;2.90;99.90;;;;;;4978772;28;20502;-72
2021/01/25 10:22:04;;;;;;;13.18;9.65;;;3.20;99.90;;;;;;4977813;28;20479;-72
2021/01/25 10:24:29;;;;;;;12.27;9.70;;;3.10;99.90;;;;;;4977432;28;20027;-72
2021/01/25 10:26:55;;;;;;;13.77;10.00;;;3.20;99.90;;;;;;4977065;28;20135;-72
2021/01/25 10:29:20;;;;;;;13.75;9.50;;;3.20;99.90;;;;;;4977244;28;20019;-72
2021/01/25 10:31:46;;;;;;;13.15;10.25;;;3.20;99.90;;;;;;4976669;28;20022;-71
2021/01/25 10:34:11;;;;;;;15.10;9.57;;;3.30;99.90;;;;;;4977218;28;20085;-72
2021/01/25 10:36:37;;;;;;;16.00;9.32;;;3.30;99.90;;;;;;4979666;28;20633;-71
2021/01/25 10:39:02;;;;;;;13.85;9.13;;;3.40;99.90;;;;;;4996675;28;20031;-72
2021/01/25 10:41:28;;;;;;;10.90;9.63;;;3.50;99.90;;;;;;4980966;28;20096;-71
2021/01/25 10:43:53;;;;;;;16.65;9.65;;;3.40;99.90;;;;;;4978426;28;20077;-72
2021/01/25 10:46:19;;;;;;;23.73;11.27;;;3.70;99.90;;;;;;4976859;28;20773;-72
2021/01/25 10:48:45;;;;;;;13.70;9.40;;;3.60;99.90;;;;;;4977104;28;20049;-72
2021/01/25 10:51:10;;;;;;;19.10;10.60;;;3.30;99.90;;;;;;4976794;28;20034;-72
2021/01/25 10:53:36;;;;;;;15.00;11.38;;;3.10;99.90;;;;;;4976523;28;20034;-72
2021/01/25 10:56:02;;;;;;;13.13;10.57;;;2.90;99.90;;;;;;4974911;28;20125;-71
2021/01/25 10:58:27;;;;;;;13.00;10.57;;;2.90;99.90;;;;;;4976394;28;20031;-72
2021/01/25 11:00:54;;;;;;;21.00;9.73;;;2.90;99.90;;;;;;4976609;28;20042;-71
2021/01/25 11:03:19;;;;;;;14.25;10.77;;;3.00;99.90;;;;;;4975506;28;20110;-72
2021/01/25 11:05:45;;;;;;;15.50;10.45;;;3.00;99.90;;;;;;4976875;28;20059;-73
2021/01/25 11:08:11;;;;;;;15.13;10.35;;;3.00;99.90;;;;;;4978453;28;20483;-73
2021/01/25 11:10:36;;;;;;;9.90;8.82;;;3.20;99.90;;;;;;4984436;28;20031;-72
2021/01/25 11:13:02;;;;;;;10.98;9.18;;;3.50;99.90;;;;;;4984065;28;20085;-72
2021/01/25 11:15:28;;;;;;;9.35;7.72;;;3.70;99.90;;;;;;4981024;28;20039;-71
2021/01/25 11:17:54;;;;;;;11.57;9.70;;;3.80;99.90;;;;;;4982079;28;20031;-71
2021/01/25 11:20:20;;;;;;;16.45;9.55;;;3.90;99.90;;;;;;4987361;28;20398;-72
2021/01/25 11:22:46;;;;;;;11.40;9.32;;;3.70;99.90;;;;;;4986447;28;20038;-72
2021/01/25 11:25:12;;;;;;;11.88;9.07;;;3.70;99.90;;;;;;4986122;28;20023;-71
2021/01/25 11:27:38;;;;;;;8.18;7.15;;;3.70;99.90;;;;;;4977980;28;20038;-72
2021/01/25 11:30:06;;;;;;;5.75;3.20;;;3.90;99.90;;;;;;4974423;28;20403;-72
2021/01/25 11:32:31;;;;;;;3.53;2.78;;;4.10;99.90;;;;;;4977034;28;20023;-72
2021/01/25 11:34:57;;;;;;;5.03;2.03;;;4.10;99.90;;;;;;4975971;28;20054;-72
2021/01/25 11:37:23;;;;;;;4.60;2.58;;;4.00;99.90;;;;;;4975843;28;20107;-71
2021/01/25 11:39:48;;;;;;;5.70;2.60;;;4.10;99.90;;;;;;4975742;28;20407;-72
2021/01/25 11:42:14;;;;;;;2.83;2.53;;;4.40;99.90;;;;;;4973929;28;20031;-71
2021/01/25 11:44:39;;;;;;;3.13;2.60;;;4.40;99.90;;;;;;4975688;28;20041;-72
2021/01/25 11:47:05;;;;;;;2.50;2.30;;;4.40;99.90;;;;;;4975998;28;20406;-71
2021/01/25 11:49:31;;;;;;;3.63;2.45;;;4.50;99.90;;;;;;4978131;28;20069;-71
2021/01/25 11:51:57;;;;;;;2.10;2.00;;;4.60;99.90;;;;;;4975948;28;20414;-72
2021/01/25 11:54:22;;;;;;;2.05;1.77;;;4.80;99.90;;;;;;4976479;28;20034;-72
2021/01/25 11:56:48;;;;;;;2.45;1.92;;;5.00;94.80;;;;;;4975076;28;20027;-72
2021/01/25 11:59:13;;;;;;;3.63;1.50;;;4.70;99.90;;;;;;4974878;28;20030;-72
2021/01/25 12:01:39;;;;;;;1.35;1.25;;;4.60;95.80;;;;;;4975408;28;20039;-71
2021/01/25 12:04:06;;;;;;;2.55;1.48;;;4.70;73.00;;;;;;4976136;28;20054;-71
2021/01/25 12:06:32;;;;;;;1.40;1.30;;;4.60;97.00;;;;;;4974512;28;20478;-71
2021/01/25 12:08:58;;;;;;;0.82;0.80;;;5.00;99.90;;;;;;4974670;28;20110;-72
2021/01/25 12:11:23;;;;;;;1.05;0.85;;;5.10;32.30;;;;;;4974189;28;20122;-73
2021/01/25 12:13:49;;;;;;;1.50;0.77;;;5.20;1.00;;;;;;4974869;28;20846;-71
2021/01/25 12:16:16;;;;;;;1.15;0.77;;;5.10;13.30;;;;;;4974510;28;20035;-71
2021/01/25 12:18:45;;;;;;;1.95;0.90;;;5.20;23.70;;;;;;4980222;28;20034;-71
2021/01/25 12:21:12;;;;;;;0.63;0.60;;;5.30;29.00;;;;;;4991878;28;20110;-71
2021/01/25 12:23:38;;;;;;;1.02;0.60;;;5.30;37.80;;;;;;4991653;28;20031;-72
2021/01/25 12:26:04;;;;;;;0.77;0.50;;;5.10;1.00;;;;;;4995080;28;20050;-71
2021/01/25 12:28:30;;;;;;;1.23;0.80;;;4.90;1.00;;;;;;4991587;28;20030;-72
2021/01/25 12:30:56;;;;;;;0.50;0.50;;;4.90;28.00;;;;;;4994783;28;20017;-71
2021/01/25 12:33:21;;;;;;;1.17;0.50;;;4.80;24.60;;;;;;4981469;28;20039;-72
2021/01/25 12:35:47;;;;;;;1.95;1.10;;;4.70;2.70;;;;;;4975322;28;20027;-70
2021/01/25 12:38:13;;;;;;;0.73;0.50;;;4.50;14.30;;;;;;4975445;28;20022;-72
2021/01/25 12:40:39;;;;;;;1.95;0.50;;;4.60;47.90;;;;;;5031262;23;20050;-73
2021/01/25 12:43:05;;;;;;;1.85;0.50;;;4.70;50.00;;;;;;4998277;28;20046;-74
2021/01/25 12:45:30;;;;;;;1.13;0.90;;;4.60;79.60;;;;;;4991331;28;20030;-74
2021/01/25 12:47:56;;;;;;;1.77;0.60;;;4.70;67.40;;;;;;4988151;28;20026;-75
2021/01/25 12:50:22;;;;;;;0.60;0.60;;;4.50;46.40;;;;;;4995982;28;20033;-73
2021/01/25 12:52:48;;;;;;;0.73;0.73;;;4.40;90.70;;;;;;4978675;28;20487;-73
2021/01/25 12:55:14;;;;;;;0.60;0.60;;;4.40;99.90;;;;;;4983361;28;20042;-73
2021/01/25 12:57:42;;;;;;;0.60;0.52;;;4.30;67.60;;;;;;4991618;28;20037;-75